sensor_id;sensor_type;location;lat;lon;timestamp;pressure;altitude;pressure_sealevel;temperature;humidity
27425;BME280;15244;49.088;11.886;2022-12-18T00:04:48;96917.88;;;-0.05;49.88
27425;BME280;15244;49.088;11.886;2022-12-18T00:09:49;96915.19;;;-0.05;49.98
27425;BME280;15244;49.088;11.886;2022-12-18T00:14:51;96927.78;;;-0.05;50.35
27425;BME280;15244;49.088;11.886;2022-12-18T00:19:52;96938.00;;;-0.07;50.15
27425;BME280;15244;49.088;11.886;2022-12-18T00:24:54;96946.59;;;-0.10;50.39
27425;BME280;15244;49.088;11.886;2022-12-18T00:29:55;96939.13;;;-0.13;49.80
27425;BME280;15244;49.088;11.886;2022-12-18T00:34:57;96956.81;;;-0.12;50.42
27425;BME280;15244;49.088;11.886;2022-12-18T00:39:58;96977.97;;;-0.11;50.35
27425;BME280;15244;49.088;11.886;2022-12-18T00:45:00;96976.06;;;-0.10;50.68
27425;BME280;15244;49.088;11.886;2022-12-18T00:50:02;96976.06;;;-0.10;50.18
27425;BME280;15244;49.088;11.886;2022-12-18T00:55:04;96968.84;;;-0.10;50.42
27425;BME280;15244;49.088;11.886;2022-12-18T01:00:09;96955.94;;;-0.08;50.34
27425;BME280;15244;49.088;11.886;2022-12-18T01:05:12;96946.84;;;-0.07;50.43
27425;BME280;15244;49.088;11.886;2022-12-18T01:10:13;96947.91;;;-0.08;50.09
27425;BME280;15244;49.088;11.886;2022-12-18T01:15:15;96968.56;;;-0.08;50.27
27425;BME280;15244;49.088;11.886;2022-12-18T01:20:17;96961.31;;;-0.08;50.48
27425;BME280;15244;49.088;11.886;2022-12-18T01:25:19;96967.97;;;-0.05;50.10
27425;BME280;15244;49.088;11.886;2022-12-18T01:30:21;96956.47;;;-0.06;49.86
27425;BME280;15244;49.088;11.886;2022-12-18T01:35:22;96984.88;;;-0.05;50.39
27425;BME280;15244;49.088;11.886;2022-12-18T01:40:24;96978.72;;;-0.05;50.32
27425;BME280;15244;49.088;11.886;2022-12-18T01:45:28;96992.09;;;-0.05;50.52
27425;BME280;15244;49.088;11.886;2022-12-18T01:50:41;96996.41;;;-0.04;50.13
27425;BME280;15244;49.088;11.886;2022-12-18T01:55:46;96993.44;;;-0.03;50.49
27425;BME280;15244;49.088;11.886;2022-12-18T02:00:49;97001.19;;;-0.01;50.71
27425;BME280;15244;49.088;11.886;2022-12-18T02:06:13;97001.19;;;-0.01;50.93
27425;BME280;15244;49.088;11.886;2022-12-18T02:27:22;97004.44;;;-0.04;50.84
27425;BME280;15244;49.088;11.886;2022-12-18T02:32:31;96994.00;;;-0.06;50.53
27425;BME280;15244;49.088;11.886;2022-12-18T02:37:34;97000.16;;;-0.05;50.82
27425;BME280;15244;49.088;11.886;2022-12-18T02:42:40;97004.72;;;-0.06;50.98
27425;BME280;15244;49.088;11.886;2022-12-18T02:47:45;97008.72;;;-0.03;51.08
27425;BME280;15244;49.088;11.886;2022-12-18T02:53:14;97002.28;;;-0.02;51.10
27425;BME280;15244;49.088;11.886;2022-12-18T03:04:16;97002.00;;;-0.01;50.86
27425;BME280;15244;49.088;11.886;2022-12-18T03:09:21;97001.72;;;0.01;50.70
27425;BME280;15244;49.088;11.886;2022-12-18T03:14:27;97000.94;;;0.01;50.74
27425;BME280;15244;49.088;11.886;2022-12-18T03:19:32;96994.47;;;0.02;50.78
27425;BME280;15244;49.088;11.886;2022-12-18T03:24:36;97006.81;;;0.03;50.88
27425;BME280;15244;49.088;11.886;2022-12-18T03:29:48;97001.16;;;0.04;51.11
27425;BME280;15244;49.088;11.886;2022-12-18T03:35:03;96993.91;;;0.05;50.77
27425;BME280;15244;49.088;11.886;2022-12-18T03:40:10;96997.09;;;0.07;50.76
27425;BME280;15244;49.088;11.886;2022-12-18T03:45:13;96987.69;;;0.09;51.02
27425;BME280;15244;49.088;11.886;2022-12-18T03:55:32;97003.25;;;0.07;50.57
27425;BME280;15244;49.088;11.886;2022-12-18T04:00:38;97012.97;;;0.03;50.24
27425;BME280;15244;49.088;11.886;2022-12-18T04:05:44;97010.59;;;-0.04;50.46
27425;BME280;15244;49.088;11.886;2022-12-18T04:10:48;97009.28;;;-0.06;50.69
27425;BME280;15244;49.088;11.886;2022-12-18T04:15:50;97012.25;;;-0.08;50.61
27425;BME280;15244;49.088;11.886;2022-12-18T04:20:54;97021.09;;;-0.07;51.26
27425;BME280;15244;49.088;11.886;2022-12-18T04:25:57;97014.13;;;-0.08;51.20
27425;BME280;15244;49.088;11.886;2022-12-18T04:31:28;97031.84;;;-0.07;50.74
27425;BME280;15244;49.088;11.886;2022-12-18T04:36:30;97033.94;;;-0.04;51.30
27425;BME280;15244;49.088;11.886;2022-12-18T04:41:32;97023.75;;;-0.02;50.92
27425;BME280;15244;49.088;11.886;2022-12-18T04:46:34;97035.00;;;0.00;51.39
27425;BME280;15244;49.088;11.886;2022-12-18T04:51:36;97035.47;;;0.02;51.29
27425;BME280;15244;49.088;11.886;2022-12-18T04:56:37;97037.63;;;0.05;51.06
27425;BME280;15244;49.088;11.886;2022-12-18T05:01:39;97041.63;;;0.08;51.25
27425;BME280;15244;49.088;11.886;2022-12-18T05:06:41;97045.94;;;0.04;50.86
27425;BME280;15244;49.088;11.886;2022-12-18T05:11:43;97045.94;;;0.04;50.65
27425;BME280;15244;49.088;11.886;2022-12-18T05:16:46;97044.34;;;0.03;51.05
27425;BME280;15244;49.088;11.886;2022-12-18T05:21:48;97044.34;;;0.03;50.92
27425;BME280;15244;49.088;11.886;2022-12-18T05:26:49;97061.50;;;0.02;51.19
27425;BME280;15244;49.088;11.886;2022-12-18T05:31:51;97049.97;;;0.01;51.09
27425;BME280;15244;49.088;11.886;2022-12-18T05:36:53;97054.53;;;0.01;50.87
27425;BME280;15244;49.088;11.886;2022-12-18T05:41:54;97065.78;;;0.03;50.81
27425;BME280;15244;49.088;11.886;2022-12-18T05:46:56;97057.75;;;0.03;51.63
27425;BME280;15244;49.088;11.886;2022-12-18T05:51:57;97063.59;;;0.05;50.85
27425;BME280;15244;49.088;11.886;2022-12-18T05:56:59;97072.47;;;0.05;51.33
27425;BME280;15244;49.088;11.886;2022-12-18T06:02:00;97072.19;;;0.07;51.04
27425;BME280;15244;49.088;11.886;2022-12-18T06:07:03;97077.53;;;0.07;50.81
27425;BME280;15244;49.088;11.886;2022-12-18T06:12:05;97081.31;;;0.06;51.37
27425;BME280;15244;49.088;11.886;2022-12-18T06:17:07;97084.56;;;0.03;50.57
27425;BME280;15244;49.088;11.886;2022-12-18T06:22:08;97084.84;;;0.01;51.20
27425;BME280;15244;49.088;11.886;2022-12-18T06:27:10;97087.00;;;-0.01;50.42
27425;BME280;15244;49.088;11.886;2022-12-18T06:32:11;97087.25;;;-0.03;50.79
27425;BME280;15244;49.088;11.886;2022-12-18T06:37:13;97091.31;;;-0.05;50.61
27425;BME280;15244;49.088;11.886;2022-12-18T06:42:14;97099.88;;;-0.03;50.86
27425;BME280;15244;49.088;11.886;2022-12-18T06:47:16;97101.75;;;-0.04;50.84
27425;BME280;15244;49.088;11.886;2022-12-18T06:52:17;97118.94;;;-0.05;50.92
27425;BME280;15244;49.088;11.886;2022-12-18T06:57:19;97123.78;;;-0.07;50.95
27425;BME280;15244;49.088;11.886;2022-12-18T07:02:20;97129.13;;;-0.07;50.79
27425;BME280;15244;49.088;11.886;2022-12-18T07:07:22;97124.03;;;-0.08;50.78
27425;BME280;15244;49.088;11.886;2022-12-18T07:12:24;97133.19;;;-0.09;50.66
27425;BME280;15244;49.088;11.886;2022-12-18T07:17:25;97135.59;;;-0.13;50.50
27425;BME280;15244;49.088;11.886;2022-12-18T07:22:27;97130.53;;;-0.14;50.65
27425;BME280;15244;49.088;11.886;2022-12-18T07:27:28;97108.31;;;-0.15;50.09
27425;BME280;15244;49.088;11.886;2022-12-18T07:32:30;97109.66;;;-0.17;50.14
27425;BME280;15244;49.088;11.886;2022-12-18T07:37:32;97112.03;;;-0.16;50.23
27425;BME280;15244;49.088;11.886;2022-12-18T07:42:33;97119.56;;;-0.18;50.19
27425;BME280;15244;49.088;11.886;2022-12-18T07:47:36;97117.69;;;-0.17;49.97
27425;BME280;15244;49.088;11.886;2022-12-18T07:52:37;97136.47;;;-0.17;50.36
27425;BME280;15244;49.088;11.886;2022-12-18T07:57:39;97135.09;;;-0.15;50.19
27425;BME280;15244;49.088;11.886;2022-12-18T08:03:01;97130.25;;;-0.13;50.42
27425;BME280;15244;49.088;11.886;2022-12-18T08:08:03;97138.28;;;-0.13;50.28
27425;BME280;15244;49.088;11.886;2022-12-18T08:13:04;97146.84;;;-0.11;50.47
27425;BME280;15244;49.088;11.886;2022-12-18T08:18:06;97157.00;;;-0.08;50.27
27425;BME280;15244;49.088;11.886;2022-12-18T08:23:14;97161.84;;;-0.05;50.63
27425;BME280;15244;49.088;11.886;2022-12-18T08:28:16;97173.88;;;-0.02;50.94
27425;BME280;15244;49.088;11.886;2022-12-18T08:33:17;97170.63;;;0.01;50.74
27425;BME280;15244;49.088;11.886;2022-12-18T08:38:19;97166.88;;;0.02;50.52
27425;BME280;15244;49.088;11.886;2022-12-18T08:43:21;97170.06;;;0.04;50.73
27425;BME280;15244;49.088;11.886;2022-12-18T08:48:42;97168.72;;;0.07;50.32
27425;BME280;15244;49.088;11.886;2022-12-18T08:53:43;97175.69;;;0.08;50.73
27425;BME280;15244;49.088;11.886;2022-12-18T08:58:45;97183.44;;;0.09;50.52
27425;BME280;15244;49.088;11.886;2022-12-18T09:03:48;97178.59;;;0.11;50.67
27425;BME280;15244;49.088;11.886;2022-12-18T09:08:50;97177.25;;;0.14;50.91
27425;BME280;15244;49.088;11.886;2022-12-18T09:13:53;97176.97;;;0.15;50.66
27425;BME280;15244;49.088;11.886;2022-12-18T09:18:55;97179.34;;;0.17;50.46
27425;BME280;15244;49.088;11.886;2022-12-18T09:24:00;97178.78;;;0.20;50.68
27425;BME280;15244;49.088;11.886;2022-12-18T09:29:03;97176.38;;;0.24;50.85
27425;BME280;15244;49.088;11.886;2022-12-18T09:34:04;97175.78;;;0.27;50.54
27425;BME280;15244;49.088;11.886;2022-12-18T09:39:06;97169.06;;;0.29;50.61
27425;BME280;15244;49.088;11.886;2022-12-18T09:44:25;97156.97;;;0.32;50.94
27425;BME280;15244;49.088;11.886;2022-12-18T09:49:30;97172.50;;;0.35;50.80
27425;BME280;15244;49.088;11.886;2022-12-18T09:54:43;97160.94;;;0.39;50.33
27425;BME280;15244;49.088;11.886;2022-12-18T10:00:02;97152.59;;;0.41;50.88
27425;BME280;15244;49.088;11.886;2022-12-18T10:05:13;97148.03;;;0.41;50.35
27425;BME280;15244;49.088;11.886;2022-12-18T10:10:29;97146.94;;;0.42;50.15
27425;BME280;15244;49.088;11.886;2022-12-18T10:15:42;97150.72;;;0.41;50.64
27425;BME280;15244;49.088;11.886;2022-12-18T10:20:49;97149.06;;;0.46;50.19
27425;BME280;15244;49.088;11.886;2022-12-18T10:30:57;97135.31;;;0.52;50.11
27425;BME280;15244;49.088;11.886;2022-12-18T10:36:00;97140.94;;;0.56;49.93
27425;BME280;15244;49.088;11.886;2022-12-18T10:41:05;97135.25;;;0.57;50.42
27425;BME280;15244;49.088;11.886;2022-12-18T10:51:09;97117.56;;;0.56;50.29
27425;BME280;15244;49.088;11.886;2022-12-18T10:56:19;97124.78;;;0.61;50.37
27425;BME280;15244;49.088;11.886;2022-12-18T11:01:21;97125.78;;;0.65;50.08
27425;BME280;15244;49.088;11.886;2022-12-18T11:06:24;97124.16;;;0.69;50.10
27425;BME280;15244;49.088;11.886;2022-12-18T11:11:27;97122.53;;;0.68;49.62
27425;BME280;15244;49.088;11.886;2022-12-18T11:16:33;97143.44;;;0.71;50.02
27425;BME280;15244;49.088;11.886;2022-12-18T11:21:39;97133.72;;;0.75;50.12
27425;BME280;15244;49.088;11.886;2022-12-18T11:26:42;97133.66;;;0.80;50.00
27425;BME280;15244;49.088;11.886;2022-12-18T11:31:44;97137.16;;;0.81;49.53
27425;BME280;15244;49.088;11.886;2022-12-18T11:36:47;97126.66;;;0.84;49.91
27425;BME280;15244;49.088;11.886;2022-12-18T11:42:00;97130.88;;;0.91;49.39
27425;BME280;15244;49.088;11.886;2022-12-18T11:47:49;97123.84;;;0.95;49.83
27425;BME280;15244;49.088;11.886;2022-12-18T11:52:51;97139.97;;;0.95;49.51
27425;BME280;15244;49.088;11.886;2022-12-18T11:58:10;97135.66;;;0.94;49.25
27425;BME280;15244;49.088;11.886;2022-12-18T12:14:57;97100.13;;;1.02;48.96
27425;BME280;15244;49.088;11.886;2022-12-18T12:25:13;97085.66;;;0.98;48.91
27425;BME280;15244;49.088;11.886;2022-12-18T12:30:35;97074.72;;;0.94;49.03
27425;BME280;15244;49.088;11.886;2022-12-18T12:36:56;97088.66;;;0.96;48.83
27425;BME280;15244;49.088;11.886;2022-12-18T12:41:25;97083.00;;;0.98;49.60
27425;BME280;15244;49.088;11.886;2022-12-18T12:46:48;97087.28;;;0.99;49.54
27425;BME280;15244;49.088;11.886;2022-12-18T12:51:59;97083.50;;;1.00;49.00
27425;BME280;15244;49.088;11.886;2022-12-18T13:07:54;97079.72;;;1.01;49.54
27425;BME280;15244;49.088;11.886;2022-12-18T13:13:12;97094.47;;;1.03;48.87
27425;BME280;15244;49.088;11.886;2022-12-18T13:18:24;97092.28;;;1.05;49.49
27425;BME280;15244;49.088;11.886;2022-12-18T13:33:48;97075.38;;;1.05;48.79
27425;BME280;15244;49.088;11.886;2022-12-18T13:44:33;97072.97;;;1.03;48.51
27425;BME280;15244;49.088;11.886;2022-12-18T13:49:43;97069.50;;;1.03;48.85
27425;BME280;15244;49.088;11.886;2022-12-18T13:54:50;97068.19;;;1.00;48.68
27425;BME280;15244;49.088;11.886;2022-12-18T13:59:52;97070.66;;;0.97;48.53
27425;BME280;15244;49.088;11.886;2022-12-18T14:04:54;97072.81;;;0.95;48.69
27425;BME280;15244;49.088;11.886;2022-12-18T14:10:01;97075.00;;;0.93;48.44
27425;BME280;15244;49.088;11.886;2022-12-18T14:15:31;97073.47;;;0.86;48.59
27425;BME280;15244;49.088;11.886;2022-12-18T14:20:35;97064.31;;;0.88;48.72
27425;BME280;15244;49.088;11.886;2022-12-18T14:25:38;97060.59;;;0.83;48.39
27425;BME280;15244;49.088;11.886;2022-12-18T14:30:45;97051.03;;;0.77;48.50
27425;BME280;15244;49.088;11.886;2022-12-18T14:35:58;97055.34;;;0.73;47.96
27425;BME280;15244;49.088;11.886;2022-12-18T14:41:11;97042.06;;;0.63;48.16
27425;BME280;15244;49.088;11.886;2022-12-18T14:46:38;97049.97;;;0.54;47.60
27425;BME280;15244;49.088;11.886;2022-12-18T14:51:47;97050.59;;;0.46;47.92
27425;BME280;15244;49.088;11.886;2022-12-18T14:56:55;97064.88;;;0.41;47.53
27425;BME280;15244;49.088;11.886;2022-12-18T15:02:17;97072.19;;;0.36;48.34
27425;BME280;15244;49.088;11.886;2022-12-18T15:07:22;97078.66;;;0.30;47.75
27425;BME280;15244;49.088;11.886;2022-12-18T15:12:33;97074.44;;;0.24;47.92
27425;BME280;15244;49.088;11.886;2022-12-18T15:17:35;97073.41;;;0.19;47.88
27425;BME280;15244;49.088;11.886;2022-12-18T15:22:37;97070.75;;;0.14;48.08
27425;BME280;15244;49.088;11.886;2022-12-18T15:27:45;97065.75;;;0.08;48.44
27425;BME280;15244;49.088;11.886;2022-12-18T15:32:48;97063.91;;;0.03;48.00
27425;BME280;15244;49.088;11.886;2022-12-18T15:37:51;97069.31;;;-0.02;47.98
27425;BME280;15244;49.088;11.886;2022-12-18T15:42:54;97077.94;;;-0.10;47.93
27425;BME280;15244;49.088;11.886;2022-12-18T15:48:22;97076.13;;;-0.15;47.93
27425;BME280;15244;49.088;11.886;2022-12-18T15:53:27;97077.25;;;-0.21;48.06
27425;BME280;15244;49.088;11.886;2022-12-18T15:58:29;97075.41;;;-0.26;47.67
27425;BME280;15244;49.088;11.886;2022-12-18T16:03:30;97079.72;;;-0.30;48.02
27425;BME280;15244;49.088;11.886;2022-12-18T16:08:32;97089.41;;;-0.34;47.84
27425;BME280;15244;49.088;11.886;2022-12-18T16:13:34;97080.59;;;-0.39;47.81
27425;BME280;15244;49.088;11.886;2022-12-18T16:18:35;97080.66;;;-0.45;47.99
27425;BME280;15244;49.088;11.886;2022-12-18T16:23:37;97064.31;;;-0.48;48.01
27425;BME280;15244;49.088;11.886;2022-12-18T16:28:39;97066.75;;;-0.52;47.92
27425;BME280;15244;49.088;11.886;2022-12-18T16:33:48;97068.38;;;-0.56;47.56
27425;BME280;15244;49.088;11.886;2022-12-18T16:38:50;97067.06;;;-0.58;47.72
27425;BME280;15244;49.088;11.886;2022-12-18T16:43:51;97059.31;;;-0.60;47.75
27425;BME280;15244;49.088;11.886;2022-12-18T16:48:57;97058.78;;;-0.62;47.79
27425;BME280;15244;49.088;11.886;2022-12-18T16:53:59;97058.25;;;-0.64;47.25
27425;BME280;15244;49.088;11.886;2022-12-18T16:59:06;97057.50;;;-0.70;47.93
27425;BME280;15244;49.088;11.886;2022-12-18T17:04:10;97059.66;;;-0.72;47.59
27425;BME280;15244;49.088;11.886;2022-12-18T17:09:13;97049.50;;;-0.75;47.71
27425;BME280;15244;49.088;11.886;2022-12-18T17:14:19;97050.88;;;-0.77;47.93
27425;BME280;15244;49.088;11.886;2022-12-18T17:19:20;97056.78;;;-0.80;47.69
27425;BME280;15244;49.088;11.886;2022-12-18T17:24:23;97050.91;;;-0.82;47.87
27425;BME280;15244;49.088;11.886;2022-12-18T17:29:24;97056.81;;;-0.85;47.94
27425;BME280;15244;49.088;11.886;2022-12-18T17:34:27;97058.44;;;-0.90;48.00
27425;BME280;15244;49.088;11.886;2022-12-18T17:39:29;97047.19;;;-0.92;47.94
27425;BME280;15244;49.088;11.886;2022-12-18T17:44:31;97042.41;;;-0.95;47.91
27425;BME280;15244;49.088;11.886;2022-12-18T17:49:34;97046.16;;;-0.96;48.25
27425;BME280;15244;49.088;11.886;2022-12-18T17:54:36;97045.91;;;-0.99;48.24
27425;BME280;15244;49.088;11.886;2022-12-18T17:59:40;97038.69;;;-1.04;48.08
27425;BME280;15244;49.088;11.886;2022-12-18T18:04:42;97037.38;;;-1.06;48.10
27425;BME280;15244;49.088;11.886;2022-12-18T18:09:43;97026.97;;;-1.08;48.17
27425;BME280;15244;49.088;11.886;2022-12-18T18:14:45;97014.94;;;-1.11;47.78
27425;BME280;15244;49.088;11.886;2022-12-18T18:19:47;97028.34;;;-1.16;48.07
27425;BME280;15244;49.088;11.886;2022-12-18T18:24:50;97025.13;;;-1.18;48.29
27425;BME280;15244;49.088;11.886;2022-12-18T18:29:51;97036.41;;;-1.21;47.92
27425;BME280;15244;49.088;11.886;2022-12-18T18:34:53;97035.31;;;-1.25;48.09
27425;BME280;15244;49.088;11.886;2022-12-18T18:39:55;97035.31;;;-1.25;48.43
27425;BME280;15244;49.088;11.886;2022-12-18T18:44:57;97046.03;;;-1.25;48.91
27425;BME280;15244;49.088;11.886;2022-12-18T18:49:58;97043.09;;;-1.23;48.79
27425;BME280;15244;49.088;11.886;2022-12-18T18:55:00;97042.00;;;-1.22;48.62
27425;BME280;15244;49.088;11.886;2022-12-18T19:00:17;97037.19;;;-1.20;48.84
27425;BME280;15244;49.088;11.886;2022-12-18T19:05:18;97023.00;;;-1.21;48.92
27425;BME280;15244;49.088;11.886;2022-12-18T19:10:20;97024.06;;;-1.22;48.97
27425;BME280;15244;49.088;11.886;2022-12-18T19:15:22;97011.78;;;-1.23;48.85
27425;BME280;15244;49.088;11.886;2022-12-18T19:20:24;97010.44;;;-1.25;49.15
27425;BME280;15244;49.088;11.886;2022-12-18T19:25:26;97009.66;;;-1.26;48.89
27425;BME280;15244;49.088;11.886;2022-12-18T19:30:42;97010.22;;;-1.29;49.29
27425;BME280;15244;49.088;11.886;2022-12-18T19:35:43;97019.84;;;-1.33;49.26
27425;BME280;15244;49.088;11.886;2022-12-18T19:40:45;97012.66;;;-1.38;48.99
27425;BME280;15244;49.088;11.886;2022-12-18T19:45:53;97009.19;;;-1.38;49.47
27425;BME280;15244;49.088;11.886;2022-12-18T19:50:55;97004.09;;;-1.40;49.35
27425;BME280;15244;49.088;11.886;2022-12-18T19:55:56;96996.59;;;-1.38;49.17
27425;BME280;15244;49.088;11.886;2022-12-18T20:00:58;97005.41;;;-1.37;49.65
27425;BME280;15244;49.088;11.886;2022-12-18T20:11:28;97000.63;;;-1.40;49.71
27425;BME280;15244;49.088;11.886;2022-12-18T20:16:30;97008.38;;;-1.39;50.06
27425;BME280;15244;49.088;11.886;2022-12-18T20:21:32;97003.84;;;-1.38;49.88
27425;BME280;15244;49.088;11.886;2022-12-18T20:26:33;97007.03;;;-1.36;49.79
27425;BME280;15244;49.088;11.886;2022-12-18T20:31:35;97005.94;;;-1.35;49.70
27425;BME280;15244;49.088;11.886;2022-12-18T20:36:37;97004.59;;;-1.33;49.71
27425;BME280;15244;49.088;11.886;2022-12-18T20:41:41;97000.34;;;-1.34;49.81
27425;BME280;15244;49.088;11.886;2022-12-18T20:46:43;97002.75;;;-1.37;49.84
27425;BME280;15244;49.088;11.886;2022-12-18T20:51:45;96997.69;;;-1.39;50.01
27425;BME280;15244;49.088;11.886;2022-12-18T20:56:46;96992.59;;;-1.40;50.40
27425;BME280;15244;49.088;11.886;2022-12-18T21:01:48;96999.84;;;-1.41;49.89
27425;BME280;15244;49.088;11.886;2022-12-18T21:06:50;97003.28;;;-1.40;50.30
27425;BME280;15244;49.088;11.886;2022-12-18T21:12:02;97002.50;;;-1.41;50.39
27425;BME280;15244;49.088;11.886;2022-12-18T21:17:23;97005.97;;;-1.40;50.57
27425;BME280;15244;49.088;11.886;2022-12-18T21:22:27;97005.72;;;-1.39;50.60
27425;BME280;15244;49.088;11.886;2022-12-18T21:27:29;97001.69;;;-1.36;50.67
27425;BME280;15244;49.088;11.886;2022-12-18T21:32:30;97002.22;;;-1.34;50.94
27425;BME280;15244;49.088;11.886;2022-12-18T21:37:34;96982.41;;;-1.33;50.91
27425;BME280;15244;49.088;11.886;2022-12-18T21:42:35;96973.28;;;-1.32;50.86
27425;BME280;15244;49.088;11.886;2022-12-18T21:47:56;96953.25;;;-1.35;50.75
27425;BME280;15244;49.088;11.886;2022-12-18T21:52:57;96965.56;;;-1.34;50.80
27425;BME280;15244;49.088;11.886;2022-12-18T21:57:59;96967.94;;;-1.32;51.11
27425;BME280;15244;49.088;11.886;2022-12-18T22:03:01;96972.22;;;-1.31;50.90
27425;BME280;15244;49.088;11.886;2022-12-18T22:08:19;96969.78;;;-1.27;51.28
27425;BME280;15244;49.088;11.886;2022-12-18T22:13:21;96959.84;;;-1.22;51.29
27425;BME280;15244;49.088;11.886;2022-12-18T22:18:22;96949.66;;;-1.20;51.20
27425;BME280;15244;49.088;11.886;2022-12-18T22:23:24;96951.78;;;-1.17;51.28
27425;BME280;15244;49.088;11.886;2022-12-18T22:28:25;96944.59;;;-1.16;51.30
27425;BME280;15244;49.088;11.886;2022-12-18T22:33:46;96938.13;;;-1.15;51.40
27425;BME280;15244;49.088;11.886;2022-12-18T22:38:47;96927.44;;;-1.15;51.43
27425;BME280;15244;49.088;11.886;2022-12-18T22:43:49;96922.59;;;-1.13;51.31
27425;BME280;15244;49.088;11.886;2022-12-18T22:48:51;96917.78;;;-1.11;51.44
27425;BME280;15244;49.088;11.886;2022-12-18T22:53:52;96908.66;;;-1.10;51.55
27425;BME280;15244;49.088;11.886;2022-12-18T22:58:55;96912.41;;;-1.06;51.65
27425;BME280;15244;49.088;11.886;2022-12-18T23:03:58;96890.69;;;-1.04;51.44
27425;BME280;15244;49.088;11.886;2022-12-18T23:09:00;96897.34;;;-1.02;51.65
27425;BME280;15244;49.088;11.886;2022-12-18T23:14:02;96901.34;;;-0.99;51.73
27425;BME280;15244;49.088;11.886;2022-12-18T23:19:04;96903.19;;;-0.95;51.79
27425;BME280;15244;49.088;11.886;2022-12-18T23:24:06;96907.47;;;-0.94;51.66
27425;BME280;15244;49.088;11.886;2022-12-18T23:29:08;96933.38;;;-0.89;51.84
27425;BME280;15244;49.088;11.886;2022-12-18T23:34:12;96915.69;;;-0.85;51.78
27425;BME280;15244;49.088;11.886;2022-12-18T23:39:14;96919.47;;;-0.86;51.75
27425;BME280;15244;49.088;11.886;2022-12-18T23:44:29;96907.41;;;-0.83;51.64
27425;BME280;15244;49.088;11.886;2022-12-18T23:49:31;96899.84;;;-0.81;51.60
27425;BME280;15244;49.088;11.886;2022-12-18T23:54:32;96862.09;;;-0.80;51.65
27425;BME280;15244;49.088;11.886;2022-12-18T23:59:34;96878.16;;;-0.80;51.79
